Miscou Island, Canada
Current Conditions -  °F | °C
As of 7:00 PM on Wednesday 22 Oct 2014 (Local Time) from CZBF Reporting Station
Overcast Overcast  
Wind Chill: 39°   Ceiling: 21000
Heat Index: 43°   Visibility: 15mi
Dew Point: 37°   Wind: 6mph
Humidity: 81%   Direction: 60°ENE
Pressure: 30.45"   Gusts: NA
Location:  47.87°N, 64.59°W
Report Text: CZBF 222200Z 06005KT 030V100 15SM FEW030 FEW120 OVC210 06/03 A3045 RMK SC1AC1CS7 AC TR SLP314
Loading
Personal Weather Stations






























Interactive Weather Map
Tropical Storm Tracking
New forecast layout! Learn more

10-Day Weather Forecast

Advertisements
Track Severe Weather on mobile